sensor_id;sensor_type;location;lat;lon;timestamp;P1;durP1;ratioP1;P2;durP2;ratioP2
9888;SDS011;4983;42.112;24.738;2024-01-06T00:00:21;30.23;;;17.95;;
9888;SDS011;4983;42.112;24.738;2024-01-06T00:02:48;29.58;;;15.88;;
9888;SDS011;4983;42.112;24.738;2024-01-06T00:05:13;30.10;;;19.27;;
9888;SDS011;4983;42.112;24.738;2024-01-06T00:07:39;34.92;;;19.15;;
9888;SDS011;4983;42.112;24.738;2024-01-06T00:10:05;31.48;;;18.65;;
9888;SDS011;4983;42.112;24.738;2024-01-06T00:12:31;30.42;;;16.58;;
9888;SDS011;4983;42.112;24.738;2024-01-06T00:14:57;37.70;;;19.30;;
9888;SDS011;4983;42.112;24.738;2024-01-06T00:17:22;32.33;;;17.25;;
9888;SDS011;4983;42.112;24.738;2024-01-06T00:19:48;34.85;;;17.27;;
9888;SDS011;4983;42.112;24.738;2024-01-06T00:22:16;28.50;;;15.85;;
9888;SDS011;4983;42.112;24.738;2024-01-06T00:24:43;32.30;;;17.20;;
9888;SDS011;4983;42.112;24.738;2024-01-06T00:27:08;24.98;;;15.98;;
9888;SDS011;4983;42.112;24.738;2024-01-06T00:29:34;30.75;;;17.25;;
9888;SDS011;4983;42.112;24.738;2024-01-06T00:31:59;33.28;;;16.77;;
9888;SDS011;4983;42.112;24.738;2024-01-06T00:34:25;30.55;;;15.82;;
9888;SDS011;4983;42.112;24.738;2024-01-06T00:36:50;27.98;;;16.17;;
9888;SDS011;4983;42.112;24.738;2024-01-06T00:39:16;31.58;;;16.80;;
9888;SDS011;4983;42.112;24.738;2024-01-06T00:41:41;32.90;;;15.30;;
9888;SDS011;4983;42.112;24.738;2024-01-06T00:44:07;31.20;;;17.00;;
9888;SDS011;4983;42.112;24.738;2024-01-06T00:46:32;31.50;;;16.60;;
9888;SDS011;4983;42.112;24.738;2024-01-06T00:48:58;28.30;;;17.17;;
9888;SDS011;4983;42.112;24.738;2024-01-06T00:51:24;26.13;;;16.48;;
9888;SDS011;4983;42.112;24.738;2024-01-06T00:53:49;27.75;;;14.55;;
9888;SDS011;4983;42.112;24.738;2024-01-06T00:56:15;25.13;;;14.60;;
9888;SDS011;4983;42.112;24.738;2024-01-06T00:58:40;26.48;;;14.50;;
9888;SDS011;4983;42.112;24.738;2024-01-06T01:01:06;28.55;;;14.52;;
9888;SDS011;4983;42.112;24.738;2024-01-06T01:03:31;28.42;;;15.38;;
9888;SDS011;4983;42.112;24.738;2024-01-06T01:05:57;22.42;;;13.43;;
9888;SDS011;4983;42.112;24.738;2024-01-06T01:08:22;29.45;;;15.27;;
9888;SDS011;4983;42.112;24.738;2024-01-06T01:10:48;27.98;;;15.02;;
9888;SDS011;4983;42.112;24.738;2024-01-06T01:13:13;31.13;;;16.85;;
9888;SDS011;4983;42.112;24.738;2024-01-06T01:15:39;29.20;;;16.25;;
9888;SDS011;4983;42.112;24.738;2024-01-06T01:18:04;30.77;;;16.40;;
9888;SDS011;4983;42.112;24.738;2024-01-06T01:20:30;28.30;;;15.52;;
9888;SDS011;4983;42.112;24.738;2024-01-06T01:22:55;28.85;;;15.73;;
9888;SDS011;4983;42.112;24.738;2024-01-06T01:25:21;31.05;;;16.92;;
9888;SDS011;4983;42.112;24.738;2024-01-06T01:27:46;30.52;;;17.38;;
9888;SDS011;4983;42.112;24.738;2024-01-06T01:30:12;25.42;;;15.60;;
9888;SDS011;4983;42.112;24.738;2024-01-06T01:32:39;28.55;;;16.17;;
9888;SDS011;4983;42.112;24.738;2024-01-06T01:35:04;26.48;;;15.63;;
9888;SDS011;4983;42.112;24.738;2024-01-06T01:37:30;32.65;;;15.90;;
9888;SDS011;4983;42.112;24.738;2024-01-06T01:39:56;32.90;;;15.43;;
9888;SDS011;4983;42.112;24.738;2024-01-06T01:42:22;29.77;;;16.38;;
9888;SDS011;4983;42.112;24.738;2024-01-06T01:44:47;27.83;;;16.42;;
9888;SDS011;4983;42.112;24.738;2024-01-06T01:47:13;28.83;;;15.77;;
9888;SDS011;4983;42.112;24.738;2024-01-06T01:49:43;27.52;;;14.93;;
9888;SDS011;4983;42.112;24.738;2024-01-06T01:52:11;28.30;;;15.70;;
9888;SDS011;4983;42.112;24.738;2024-01-06T01:54:38;31.52;;;15.00;;
9888;SDS011;4983;42.112;24.738;2024-01-06T01:57:04;28.33;;;16.42;;
9888;SDS011;4983;42.112;24.738;2024-01-06T01:59:30;28.02;;;16.20;;
9888;SDS011;4983;42.112;24.738;2024-01-06T02:01:55;28.45;;;16.08;;
9888;SDS011;4983;42.112;24.738;2024-01-06T02:04:21;30.55;;;17.40;;
9888;SDS011;4983;42.112;24.738;2024-01-06T02:06:47;32.25;;;17.20;;
9888;SDS011;4983;42.112;24.738;2024-01-06T02:09:13;26.63;;;15.60;;
9888;SDS011;4983;42.112;24.738;2024-01-06T02:11:38;30.20;;;16.63;;
9888;SDS011;4983;42.112;24.738;2024-01-06T02:14:04;31.27;;;16.77;;
9888;SDS011;4983;42.112;24.738;2024-01-06T02:16:29;29.05;;;16.85;;
9888;SDS011;4983;42.112;24.738;2024-01-06T02:18:55;28.70;;;18.33;;
9888;SDS011;4983;42.112;24.738;2024-01-06T02:21:24;28.00;;;14.98;;
9888;SDS011;4983;42.112;24.738;2024-01-06T02:23:52;27.50;;;16.00;;
9888;SDS011;4983;42.112;24.738;2024-01-06T02:26:18;29.17;;;16.80;;
9888;SDS011;4983;42.112;24.738;2024-01-06T02:28:44;28.48;;;17.10;;
9888;SDS011;4983;42.112;24.738;2024-01-06T02:31:12;32.95;;;16.45;;
9888;SDS011;4983;42.112;24.738;2024-01-06T02:33:38;29.20;;;16.25;;
9888;SDS011;4983;42.112;24.738;2024-01-06T02:36:04;29.23;;;17.27;;
9888;SDS011;4983;42.112;24.738;2024-01-06T02:38:29;27.92;;;17.13;;
9888;SDS011;4983;42.112;24.738;2024-01-06T02:40:55;30.52;;;16.33;;
9888;SDS011;4983;42.112;24.738;2024-01-06T02:43:20;27.92;;;16.17;;
9888;SDS011;4983;42.112;24.738;2024-01-06T02:45:47;32.88;;;15.90;;
9888;SDS011;4983;42.112;24.738;2024-01-06T02:48:12;31.40;;;16.40;;
9888;SDS011;4983;42.112;24.738;2024-01-06T02:50:38;27.83;;;15.52;;
9888;SDS011;4983;42.112;24.738;2024-01-06T02:53:03;28.30;;;16.00;;
9888;SDS011;4983;42.112;24.738;2024-01-06T02:55:29;26.83;;;15.70;;
9888;SDS011;4983;42.112;24.738;2024-01-06T02:57:54;30.40;;;16.30;;
9888;SDS011;4983;42.112;24.738;2024-01-06T03:00:20;28.52;;;16.98;;
9888;SDS011;4983;42.112;24.738;2024-01-06T03:02:45;30.02;;;15.73;;
9888;SDS011;4983;42.112;24.738;2024-01-06T03:05:11;30.08;;;16.48;;
9888;SDS011;4983;42.112;24.738;2024-01-06T03:07:36;31.00;;;17.30;;
9888;SDS011;4983;42.112;24.738;2024-01-06T03:10:02;31.25;;;18.13;;
9888;SDS011;4983;42.112;24.738;2024-01-06T03:12:28;28.33;;;17.20;;
9888;SDS011;4983;42.112;24.738;2024-01-06T03:14:53;28.75;;;16.85;;
9888;SDS011;4983;42.112;24.738;2024-01-06T03:17:19;29.80;;;17.08;;
9888;SDS011;4983;42.112;24.738;2024-01-06T03:19:44;27.00;;;17.70;;
9888;SDS011;4983;42.112;24.738;2024-01-06T03:22:10;30.27;;;17.00;;
9888;SDS011;4983;42.112;24.738;2024-01-06T03:24:35;27.85;;;16.60;;
9888;SDS011;4983;42.112;24.738;2024-01-06T03:27:02;29.48;;;15.68;;
9888;SDS011;4983;42.112;24.738;2024-01-06T03:29:27;28.83;;;16.55;;
9888;SDS011;4983;42.112;24.738;2024-01-06T03:31:53;28.10;;;16.73;;
9888;SDS011;4983;42.112;24.738;2024-01-06T03:34:18;31.08;;;16.85;;
9888;SDS011;4983;42.112;24.738;2024-01-06T03:36:44;28.42;;;16.83;;
9888;SDS011;4983;42.112;24.738;2024-01-06T03:39:09;29.65;;;16.33;;
9888;SDS011;4983;42.112;24.738;2024-01-06T03:41:35;28.83;;;16.73;;
9888;SDS011;4983;42.112;24.738;2024-01-06T03:44:01;29.02;;;18.15;;
9888;SDS011;4983;42.112;24.738;2024-01-06T03:46:26;28.60;;;17.25;;
9888;SDS011;4983;42.112;24.738;2024-01-06T03:48:52;30.23;;;17.77;;
9888;SDS011;4983;42.112;24.738;2024-01-06T03:51:18;28.50;;;16.60;;
9888;SDS011;4983;42.112;24.738;2024-01-06T03:53:43;27.60;;;17.27;;
9888;SDS011;4983;42.112;24.738;2024-01-06T03:56:09;33.00;;;17.75;;
9888;SDS011;4983;42.112;24.738;2024-01-06T03:58:34;29.45;;;17.67;;
9888;SDS011;4983;42.112;24.738;2024-01-06T04:01:00;30.80;;;17.17;;
9888;SDS011;4983;42.112;24.738;2024-01-06T04:03:25;36.80;;;17.52;;
9888;SDS011;4983;42.112;24.738;2024-01-06T04:05:51;28.58;;;17.30;;
9888;SDS011;4983;42.112;24.738;2024-01-06T04:08:17;28.08;;;16.67;;
9888;SDS011;4983;42.112;24.738;2024-01-06T04:10:42;30.15;;;16.80;;
9888;SDS011;4983;42.112;24.738;2024-01-06T04:13:08;30.13;;;18.05;;
9888;SDS011;4983;42.112;24.738;2024-01-06T04:15:34;29.95;;;16.65;;
9888;SDS011;4983;42.112;24.738;2024-01-06T04:18:01;26.63;;;15.80;;
9888;SDS011;4983;42.112;24.738;2024-01-06T04:22:56;23.23;;;13.93;;
9888;SDS011;4983;42.112;24.738;2024-01-06T04:25:21;27.92;;;16.20;;
9888;SDS011;4983;42.112;24.738;2024-01-06T04:27:47;28.73;;;16.77;;
9888;SDS011;4983;42.112;24.738;2024-01-06T04:30:14;28.73;;;17.00;;
9888;SDS011;4983;42.112;24.738;2024-01-06T04:32:40;29.23;;;17.48;;
9888;SDS011;4983;42.112;24.738;2024-01-06T04:35:06;27.02;;;15.68;;
9888;SDS011;4983;42.112;24.738;2024-01-06T04:37:32;24.15;;;14.70;;
9888;SDS011;4983;42.112;24.738;2024-01-06T04:39:57;32.42;;;17.70;;
9888;SDS011;4983;42.112;24.738;2024-01-06T04:42:23;28.83;;;18.00;;
9888;SDS011;4983;42.112;24.738;2024-01-06T04:44:49;33.58;;;17.73;;
9888;SDS011;4983;42.112;24.738;2024-01-06T04:47:15;32.40;;;16.70;;
9888;SDS011;4983;42.112;24.738;2024-01-06T04:49:40;35.33;;;17.40;;
9888;SDS011;4983;42.112;24.738;2024-01-06T04:52:06;27.70;;;16.20;;
9888;SDS011;4983;42.112;24.738;2024-01-06T04:54:32;28.08;;;16.52;;
9888;SDS011;4983;42.112;24.738;2024-01-06T04:57:00;27.73;;;17.17;;
9888;SDS011;4983;42.112;24.738;2024-01-06T04:59:25;28.13;;;16.73;;
9888;SDS011;4983;42.112;24.738;2024-01-06T05:01:51;29.70;;;15.90;;
9888;SDS011;4983;42.112;24.738;2024-01-06T05:04:18;31.33;;;15.90;;
9888;SDS011;4983;42.112;24.738;2024-01-06T05:06:44;32.40;;;16.30;;
9888;SDS011;4983;42.112;24.738;2024-01-06T05:09:09;30.05;;;16.23;;
9888;SDS011;4983;42.112;24.738;2024-01-06T05:11:35;27.23;;;15.88;;
9888;SDS011;4983;42.112;24.738;2024-01-06T05:14:00;26.35;;;15.88;;
9888;SDS011;4983;42.112;24.738;2024-01-06T05:16:26;31.25;;;16.08;;
9888;SDS011;4983;42.112;24.738;2024-01-06T05:18:52;29.45;;;16.80;;
9888;SDS011;4983;42.112;24.738;2024-01-06T05:21:18;29.90;;;15.95;;
9888;SDS011;4983;42.112;24.738;2024-01-06T05:23:44;25.63;;;16.77;;
9888;SDS011;4983;42.112;24.738;2024-01-06T05:26:09;31.35;;;17.88;;
9888;SDS011;4983;42.112;24.738;2024-01-06T05:28:36;32.50;;;17.58;;
9888;SDS011;4983;42.112;24.738;2024-01-06T05:31:02;30.77;;;17.52;;
9888;SDS011;4983;42.112;24.738;2024-01-06T05:33:27;30.63;;;16.98;;
9888;SDS011;4983;42.112;24.738;2024-01-06T05:35:53;29.23;;;16.65;;
9888;SDS011;4983;42.112;24.738;2024-01-06T05:38:18;29.33;;;17.52;;
9888;SDS011;4983;42.112;24.738;2024-01-06T05:40:44;35.22;;;19.08;;
9888;SDS011;4983;42.112;24.738;2024-01-06T05:43:09;31.90;;;18.08;;
9888;SDS011;4983;42.112;24.738;2024-01-06T05:45:35;32.55;;;17.33;;
9888;SDS011;4983;42.112;24.738;2024-01-06T05:48:02;30.23;;;16.40;;
9888;SDS011;4983;42.112;24.738;2024-01-06T05:50:28;30.80;;;17.88;;
9888;SDS011;4983;42.112;24.738;2024-01-06T05:52:53;31.63;;;17.08;;
9888;SDS011;4983;42.112;24.738;2024-01-06T05:55:19;39.38;;;18.73;;
9888;SDS011;4983;42.112;24.738;2024-01-06T05:57:44;39.85;;;18.00;;
9888;SDS011;4983;42.112;24.738;2024-01-06T06:00:10;37.17;;;17.33;;
9888;SDS011;4983;42.112;24.738;2024-01-06T06:02:36;29.05;;;16.45;;
9888;SDS011;4983;42.112;24.738;2024-01-06T06:05:02;31.63;;;17.83;;
9888;SDS011;4983;42.112;24.738;2024-01-06T06:07:27;33.13;;;18.48;;
9888;SDS011;4983;42.112;24.738;2024-01-06T06:09:53;30.48;;;18.23;;
9888;SDS011;4983;42.112;24.738;2024-01-06T06:12:19;41.00;;;19.17;;
9888;SDS011;4983;42.112;24.738;2024-01-06T06:14:44;58.17;;;19.48;;
9888;SDS011;4983;42.112;24.738;2024-01-06T06:17:09;40.45;;;18.83;;
9888;SDS011;4983;42.112;24.738;2024-01-06T06:19:35;41.33;;;19.25;;
9888;SDS011;4983;42.112;24.738;2024-01-06T06:22:01;35.33;;;19.98;;
9888;SDS011;4983;42.112;24.738;2024-01-06T06:24:26;33.17;;;18.05;;
9888;SDS011;4983;42.112;24.738;2024-01-06T06:26:51;40.28;;;18.15;;
9888;SDS011;4983;42.112;24.738;2024-01-06T06:29:17;33.08;;;19.38;;
9888;SDS011;4983;42.112;24.738;2024-01-06T06:31:42;41.78;;;19.00;;
9888;SDS011;4983;42.112;24.738;2024-01-06T06:34:09;41.95;;;19.48;;
9888;SDS011;4983;42.112;24.738;2024-01-06T06:36:35;42.17;;;20.77;;
9888;SDS011;4983;42.112;24.738;2024-01-06T06:39:01;43.40;;;23.45;;
9888;SDS011;4983;42.112;24.738;2024-01-06T06:41:29;33.20;;;20.83;;
9888;SDS011;4983;42.112;24.738;2024-01-06T06:43:55;33.05;;;19.90;;
9888;SDS011;4983;42.112;24.738;2024-01-06T06:46:20;32.17;;;20.85;;
9888;SDS011;4983;42.112;24.738;2024-01-06T06:48:46;44.65;;;19.90;;
9888;SDS011;4983;42.112;24.738;2024-01-06T06:51:11;35.40;;;18.70;;
9888;SDS011;4983;42.112;24.738;2024-01-06T06:53:37;35.33;;;18.60;;
9888;SDS011;4983;42.112;24.738;2024-01-06T06:56:02;43.88;;;23.08;;
9888;SDS011;4983;42.112;24.738;2024-01-06T06:58:28;41.13;;;22.45;;
9888;SDS011;4983;42.112;24.738;2024-01-06T07:00:54;33.42;;;19.50;;
9888;SDS011;4983;42.112;24.738;2024-01-06T07:03:20;41.20;;;23.48;;
9888;SDS011;4983;42.112;24.738;2024-01-06T07:05:45;40.97;;;21.42;;
9888;SDS011;4983;42.112;24.738;2024-01-06T07:08:11;41.00;;;22.13;;
9888;SDS011;4983;42.112;24.738;2024-01-06T07:10:38;55.55;;;24.38;;
9888;SDS011;4983;42.112;24.738;2024-01-06T07:13:04;41.33;;;23.05;;
9888;SDS011;4983;42.112;24.738;2024-01-06T07:15:29;41.03;;;21.90;;
9888;SDS011;4983;42.112;24.738;2024-01-06T07:17:54;34.45;;;20.52;;
9888;SDS011;4983;42.112;24.738;2024-01-06T07:20:20;34.47;;;19.60;;
9888;SDS011;4983;42.112;24.738;2024-01-06T07:22:45;35.97;;;19.48;;
9888;SDS011;4983;42.112;24.738;2024-01-06T07:25:11;37.90;;;21.65;;
9888;SDS011;4983;42.112;24.738;2024-01-06T07:27:36;30.40;;;19.23;;
9888;SDS011;4983;42.112;24.738;2024-01-06T07:30:02;40.28;;;20.00;;
9888;SDS011;4983;42.112;24.738;2024-01-06T07:32:28;44.67;;;21.85;;
9888;SDS011;4983;42.112;24.738;2024-01-06T07:34:53;48.08;;;25.20;;
9888;SDS011;4983;42.112;24.738;2024-01-06T07:37:19;47.38;;;23.10;;
9888;SDS011;4983;42.112;24.738;2024-01-06T07:39:44;51.13;;;26.33;;
9888;SDS011;4983;42.112;24.738;2024-01-06T07:42:10;47.30;;;26.63;;
9888;SDS011;4983;42.112;24.738;2024-01-06T07:44:35;36.08;;;21.38;;
9888;SDS011;4983;42.112;24.738;2024-01-06T07:47:01;42.03;;;22.63;;
9888;SDS011;4983;42.112;24.738;2024-01-06T07:49:30;55.67;;;29.27;;
9888;SDS011;4983;42.112;24.738;2024-01-06T07:51:55;43.65;;;26.75;;
9888;SDS011;4983;42.112;24.738;2024-01-06T07:54:21;42.70;;;26.17;;
9888;SDS011;4983;42.112;24.738;2024-01-06T07:56:47;50.47;;;27.90;;
9888;SDS011;4983;42.112;24.738;2024-01-06T07:59:12;57.80;;;28.17;;
9888;SDS011;4983;42.112;24.738;2024-01-06T08:01:38;58.65;;;31.55;;
9888;SDS011;4983;42.112;24.738;2024-01-06T08:04:04;60.13;;;34.00;;
9888;SDS011;4983;42.112;24.738;2024-01-06T08:06:30;53.35;;;29.75;;
9888;SDS011;4983;42.112;24.738;2024-01-06T08:08:55;52.60;;;28.63;;
9888;SDS011;4983;42.112;24.738;2024-01-06T08:11:21;47.63;;;26.73;;
9888;SDS011;4983;42.112;24.738;2024-01-06T08:13:46;43.92;;;24.55;;
9888;SDS011;4983;42.112;24.738;2024-01-06T08:16:12;44.22;;;24.25;;
9888;SDS011;4983;42.112;24.738;2024-01-06T08:18:38;41.58;;;23.05;;
9888;SDS011;4983;42.112;24.738;2024-01-06T08:21:03;38.30;;;22.55;;
9888;SDS011;4983;42.112;24.738;2024-01-06T08:23:29;47.42;;;24.23;;
9888;SDS011;4983;42.112;24.738;2024-01-06T08:25:54;44.47;;;25.20;;
9888;SDS011;4983;42.112;24.738;2024-01-06T08:28:20;35.00;;;22.75;;
9888;SDS011;4983;42.112;24.738;2024-01-06T08:30:48;46.13;;;26.15;;
9888;SDS011;4983;42.112;24.738;2024-01-06T08:33:14;44.58;;;24.88;;
9888;SDS011;4983;42.112;24.738;2024-01-06T08:35:39;49.00;;;25.02;;
9888;SDS011;4983;42.112;24.738;2024-01-06T08:38:08;42.10;;;23.17;;
9888;SDS011;4983;42.112;24.738;2024-01-06T08:40:34;42.10;;;23.38;;
9888;SDS011;4983;42.112;24.738;2024-01-06T08:43:00;42.25;;;23.70;;
9888;SDS011;4983;42.112;24.738;2024-01-06T08:45:26;38.92;;;23.33;;
9888;SDS011;4983;42.112;24.738;2024-01-06T08:47:51;38.45;;;24.45;;
9888;SDS011;4983;42.112;24.738;2024-01-06T08:50:17;40.03;;;25.90;;
9888;SDS011;4983;42.112;24.738;2024-01-06T08:52:42;35.22;;;20.13;;
9888;SDS011;4983;42.112;24.738;2024-01-06T08:55:08;35.35;;;18.80;;
9888;SDS011;4983;42.112;24.738;2024-01-06T08:57:33;38.70;;;21.15;;
9888;SDS011;4983;42.112;24.738;2024-01-06T08:59:59;31.58;;;18.55;;
9888;SDS011;4983;42.112;24.738;2024-01-06T09:02:24;37.45;;;18.45;;
9888;SDS011;4983;42.112;24.738;2024-01-06T09:04:50;31.70;;;18.00;;
9888;SDS011;4983;42.112;24.738;2024-01-06T09:07:15;34.00;;;20.42;;
9888;SDS011;4983;42.112;24.738;2024-01-06T09:09:42;31.65;;;19.40;;
9888;SDS011;4983;42.112;24.738;2024-01-06T09:12:08;32.05;;;19.25;;
9888;SDS011;4983;42.112;24.738;2024-01-06T09:14:33;32.78;;;18.77;;
9888;SDS011;4983;42.112;24.738;2024-01-06T09:16:59;25.77;;;17.33;;
9888;SDS011;4983;42.112;24.738;2024-01-06T09:19:24;32.90;;;17.73;;
9888;SDS011;4983;42.112;24.738;2024-01-06T09:21:50;26.83;;;17.65;;
9888;SDS011;4983;42.112;24.738;2024-01-06T09:24:15;46.25;;;20.23;;
9888;SDS011;4983;42.112;24.738;2024-01-06T09:26:41;40.08;;;22.45;;
9888;SDS011;4983;42.112;24.738;2024-01-06T09:29:06;48.67;;;24.73;;
9888;SDS011;4983;42.112;24.738;2024-01-06T09:31:32;54.03;;;28.17;;
9888;SDS011;4983;42.112;24.738;2024-01-06T09:34:00;53.88;;;24.40;;
9888;SDS011;4983;42.112;24.738;2024-01-06T09:36:27;38.25;;;23.33;;
9888;SDS011;4983;42.112;24.738;2024-01-06T09:38:53;34.28;;;22.20;;
9888;SDS011;4983;42.112;24.738;2024-01-06T09:41:18;40.70;;;23.75;;
9888;SDS011;4983;42.112;24.738;2024-01-06T09:43:45;42.13;;;21.90;;
9888;SDS011;4983;42.112;24.738;2024-01-06T09:46:24;40.38;;;23.40;;
9888;SDS011;4983;42.112;24.738;2024-01-06T09:48:54;84.88;;;24.10;;
9888;SDS011;4983;42.112;24.738;2024-01-06T09:51:21;36.42;;;21.58;;
9888;SDS011;4983;42.112;24.738;2024-01-06T09:53:48;41.90;;;22.08;;
9888;SDS011;4983;42.112;24.738;2024-01-06T09:56:17;34.40;;;21.55;;
9888;SDS011;4983;42.112;24.738;2024-01-06T09:58:43;41.38;;;19.88;;
9888;SDS011;4983;42.112;24.738;2024-01-06T10:01:10;34.67;;;21.80;;
9888;SDS011;4983;42.112;24.738;2024-01-06T10:03:37;32.20;;;19.40;;
9888;SDS011;4983;42.112;24.738;2024-01-06T10:06:03;34.10;;;20.38;;
9888;SDS011;4983;42.112;24.738;2024-01-06T10:08:29;39.47;;;20.77;;
9888;SDS011;4983;42.112;24.738;2024-01-06T10:10:58;39.75;;;19.73;;
9888;SDS011;4983;42.112;24.738;2024-01-06T10:13:24;38.50;;;17.95;;
9888;SDS011;4983;42.112;24.738;2024-01-06T10:15:50;27.73;;;17.45;;
9888;SDS011;4983;42.112;24.738;2024-01-06T10:18:15;41.72;;;17.60;;
9888;SDS011;4983;42.112;24.738;2024-01-06T10:20:41;53.10;;;21.83;;
9888;SDS011;4983;42.112;24.738;2024-01-06T10:23:09;38.92;;;22.38;;
9888;SDS011;4983;42.112;24.738;2024-01-06T10:25:35;40.10;;;23.42;;
9888;SDS011;4983;42.112;24.738;2024-01-06T10:28:00;34.13;;;18.58;;
9888;SDS011;4983;42.112;24.738;2024-01-06T10:30:29;34.15;;;20.42;;
9888;SDS011;4983;42.112;24.738;2024-01-06T10:32:54;49.38;;;23.70;;
9888;SDS011;4983;42.112;24.738;2024-01-06T10:35:20;39.80;;;23.20;;
9888;SDS011;4983;42.112;24.738;2024-01-06T10:37:46;43.35;;;23.48;;
9888;SDS011;4983;42.112;24.738;2024-01-06T10:42:44;47.65;;;21.63;;
9888;SDS011;4983;42.112;24.738;2024-01-06T10:45:11;39.38;;;20.98;;
9888;SDS011;4983;42.112;24.738;2024-01-06T10:47:38;34.60;;;19.45;;
9888;SDS011;4983;42.112;24.738;2024-01-06T10:50:06;33.42;;;20.25;;
9888;SDS011;4983;42.112;24.738;2024-01-06T10:52:33;33.53;;;19.25;;
9888;SDS011;4983;42.112;24.738;2024-01-06T10:54:59;33.88;;;18.27;;
9888;SDS011;4983;42.112;24.738;2024-01-06T10:57:26;36.50;;;18.80;;
9888;SDS011;4983;42.112;24.738;2024-01-06T10:59:56;48.25;;;21.27;;
9888;SDS011;4983;42.112;24.738;2024-01-06T11:02:24;44.15;;;21.55;;
9888;SDS011;4983;42.112;24.738;2024-01-06T11:04:50;41.05;;;21.77;;
9888;SDS011;4983;42.112;24.738;2024-01-06T11:07:20;24.60;;;15.38;;
9888;SDS011;4983;42.112;24.738;2024-01-06T11:12:27;24.23;;;12.57;;
9888;SDS011;4983;42.112;24.738;2024-01-06T11:14:53;31.13;;;13.07;;
9888;SDS011;4983;42.112;24.738;2024-01-06T11:22:48;13.82;;;9.40;;
9888;SDS011;4983;42.112;24.738;2024-01-06T11:25:21;12.10;;;9.02;;
9888;SDS011;4983;42.112;24.738;2024-01-06T11:27:47;19.08;;;9.55;;
9888;SDS011;4983;42.112;24.738;2024-01-06T11:30:21;18.52;;;9.57;;
9888;SDS011;4983;42.112;24.738;2024-01-06T11:32:46;18.30;;;11.48;;
9888;SDS011;4983;42.112;24.738;2024-01-06T11:35:15;19.15;;;10.65;;
9888;SDS011;4983;42.112;24.738;2024-01-06T11:40:10;20.83;;;11.38;;
9888;SDS011;4983;42.112;24.738;2024-01-06T11:45:43;14.73;;;8.40;;
9888;SDS011;4983;42.112;24.738;2024-01-06T11:48:10;12.43;;;8.27;;
9888;SDS011;4983;42.112;24.738;2024-01-06T11:50:38;16.13;;;10.32;;
9888;SDS011;4983;42.112;24.738;2024-01-06T11:53:05;12.35;;;8.18;;
9888;SDS011;4983;42.112;24.738;2024-01-06T11:55:32;18.63;;;9.85;;
9888;SDS011;4983;42.112;24.738;2024-01-06T11:57:59;16.83;;;9.27;;
9888;SDS011;4983;42.112;24.738;2024-01-06T12:00:29;10.68;;;7.13;;
9888;SDS011;4983;42.112;24.738;2024-01-06T12:02:58;13.02;;;8.13;;
9888;SDS011;4983;42.112;24.738;2024-01-06T12:07:58;13.57;;;6.95;;
9888;SDS011;4983;42.112;24.738;2024-01-06T12:10:26;22.85;;;13.57;;
9888;SDS011;4983;42.112;24.738;2024-01-06T12:13:06;20.92;;;7.93;;
9888;SDS011;4983;42.112;24.738;2024-01-06T12:15:35;12.65;;;7.70;;
9888;SDS011;4983;42.112;24.738;2024-01-06T12:18:03;14.52;;;10.95;;
9888;SDS011;4983;42.112;24.738;2024-01-06T12:20:29;10.07;;;6.30;;
9888;SDS011;4983;42.112;24.738;2024-01-06T12:22:55;10.02;;;5.82;;
9888;SDS011;4983;42.112;24.738;2024-01-06T12:25:21;12.70;;;6.82;;
9888;SDS011;4983;42.112;24.738;2024-01-06T12:27:48;10.32;;;6.05;;
9888;SDS011;4983;42.112;24.738;2024-01-06T12:30:23;10.65;;;5.88;;
9888;SDS011;4983;42.112;24.738;2024-01-06T12:32:49;45.63;;;8.73;;
9888;SDS011;4983;42.112;24.738;2024-01-06T12:35:17;15.57;;;7.55;;
9888;SDS011;4983;42.112;24.738;2024-01-06T12:37:43;11.48;;;7.47;;
9888;SDS011;4983;42.112;24.738;2024-01-06T12:40:10;12.30;;;7.13;;
9888;SDS011;4983;42.112;24.738;2024-01-06T12:42:37;15.88;;;8.57;;
9888;SDS011;4983;42.112;24.738;2024-01-06T12:45:03;13.52;;;7.97;;
9888;SDS011;4983;42.112;24.738;2024-01-06T12:47:29;11.80;;;6.82;;
9888;SDS011;4983;42.112;24.738;2024-01-06T12:49:55;15.60;;;7.15;;
9888;SDS011;4983;42.112;24.738;2024-01-06T12:52:20;19.10;;;7.18;;
9888;SDS011;4983;42.112;24.738;2024-01-06T12:54:46;9.95;;;6.15;;
9888;SDS011;4983;42.112;24.738;2024-01-06T12:57:11;14.95;;;7.97;;
9888;SDS011;4983;42.112;24.738;2024-01-06T12:59:37;14.82;;;8.88;;
9888;SDS011;4983;42.112;24.738;2024-01-06T13:02:02;14.90;;;7.88;;
9888;SDS011;4983;42.112;24.738;2024-01-06T13:04:28;15.07;;;8.63;;
9888;SDS011;4983;42.112;24.738;2024-01-06T13:06:54;11.40;;;7.68;;
9888;SDS011;4983;42.112;24.738;2024-01-06T13:09:19;16.00;;;7.70;;
9888;SDS011;4983;42.112;24.738;2024-01-06T13:11:48;16.13;;;8.35;;
9888;SDS011;4983;42.112;24.738;2024-01-06T13:14:15;12.00;;;7.70;;
9888;SDS011;4983;42.112;24.738;2024-01-06T13:16:41;15.95;;;10.38;;
9888;SDS011;4983;42.112;24.738;2024-01-06T13:19:06;16.13;;;10.00;;
9888;SDS011;4983;42.112;24.738;2024-01-06T13:21:32;16.35;;;9.05;;
9888;SDS011;4983;42.112;24.738;2024-01-06T13:23:57;21.77;;;9.93;;
9888;SDS011;4983;42.112;24.738;2024-01-06T13:26:26;15.52;;;8.85;;
9888;SDS011;4983;42.112;24.738;2024-01-06T13:28:53;24.45;;;10.57;;
9888;SDS011;4983;42.112;24.738;2024-01-06T13:31:18;17.20;;;11.70;;
9888;SDS011;4983;42.112;24.738;2024-01-06T13:33:45;26.80;;;11.95;;
9888;SDS011;4983;42.112;24.738;2024-01-06T13:36:11;22.10;;;13.15;;
9888;SDS011;4983;42.112;24.738;2024-01-06T13:38:36;19.95;;;11.85;;
9888;SDS011;4983;42.112;24.738;2024-01-06T13:41:02;25.38;;;11.90;;
9888;SDS011;4983;42.112;24.738;2024-01-06T13:43:28;21.38;;;12.40;;
9888;SDS011;4983;42.112;24.738;2024-01-06T13:45:53;18.23;;;11.18;;
9888;SDS011;4983;42.112;24.738;2024-01-06T13:48:20;23.30;;;12.50;;
9888;SDS011;4983;42.112;24.738;2024-01-06T13:50:45;22.35;;;11.23;;
9888;SDS011;4983;42.112;24.738;2024-01-06T13:53:11;38.13;;;13.20;;
9888;SDS011;4983;42.112;24.738;2024-01-06T13:55:37;26.77;;;13.57;;
9888;SDS011;4983;42.112;24.738;2024-01-06T13:58:02;25.20;;;14.05;;
9888;SDS011;4983;42.112;24.738;2024-01-06T14:00:29;26.75;;;15.07;;
9888;SDS011;4983;42.112;24.738;2024-01-06T14:02:55;29.35;;;12.40;;
9888;SDS011;4983;42.112;24.738;2024-01-06T14:05:21;19.10;;;11.00;;
9888;SDS011;4983;42.112;24.738;2024-01-06T14:07:47;22.73;;;12.55;;
9888;SDS011;4983;42.112;24.738;2024-01-06T14:10:15;22.52;;;11.73;;
9888;SDS011;4983;42.112;24.738;2024-01-06T14:12:41;21.73;;;11.30;;
9888;SDS011;4983;42.112;24.738;2024-01-06T14:15:07;15.48;;;10.73;;
9888;SDS011;4983;42.112;24.738;2024-01-06T14:17:33;18.20;;;11.77;;
9888;SDS011;4983;42.112;24.738;2024-01-06T14:19:59;41.65;;;25.98;;
9888;SDS011;4983;42.112;24.738;2024-01-06T14:22:25;32.38;;;18.50;;
9888;SDS011;4983;42.112;24.738;2024-01-06T14:24:51;18.85;;;12.65;;
9888;SDS011;4983;42.112;24.738;2024-01-06T14:27:17;21.40;;;10.85;;
9888;SDS011;4983;42.112;24.738;2024-01-06T14:29:43;22.50;;;10.50;;
9888;SDS011;4983;42.112;24.738;2024-01-06T14:32:08;53.15;;;17.25;;
9888;SDS011;4983;42.112;24.738;2024-01-06T14:34:34;228.07;;;86.03;;
9888;SDS011;4983;42.112;24.738;2024-01-06T14:36:59;35.15;;;16.83;;
9888;SDS011;4983;42.112;24.738;2024-01-06T14:39:25;18.05;;;11.02;;
9888;SDS011;4983;42.112;24.738;2024-01-06T14:41:50;17.83;;;11.82;;
9888;SDS011;4983;42.112;24.738;2024-01-06T14:44:17;15.68;;;9.55;;
9888;SDS011;4983;42.112;24.738;2024-01-06T14:46:45;16.38;;;10.18;;
9888;SDS011;4983;42.112;24.738;2024-01-06T14:49:11;16.00;;;10.18;;